createdAt,value
2018-11-14T00:04:24.294Z,8.02
2018-11-14T00:09:26.961Z,7.98
2018-11-14T00:14:29.426Z,8.04
2018-11-14T00:19:31.987Z,7.98
2018-11-14T00:24:34.920Z,7.98
2018-11-14T00:29:37.578Z,7.95
2018-11-14T00:34:41.183Z,8.07
2018-11-14T00:39:43.720Z,8.02
2018-11-14T00:44:46.222Z,7.91
2018-11-14T00:49:48.822Z,7.90
2018-11-14T00:54:52.122Z,7.95
2018-11-14T00:59:54.991Z,7.85
2018-11-14T01:04:57.529Z,7.92
2018-11-14T01:10:00.197Z,7.94
2018-11-14T01:15:03.196Z,7.87
2018-11-14T01:20:07.718Z,7.86
2018-11-14T01:25:11.584Z,7.77
2018-11-14T01:30:16.296Z,7.63
2018-11-14T01:35:19.246Z,7.63
2018-11-14T01:40:23.657Z,7.53
2018-11-14T01:45:26.196Z,7.48
2018-11-14T01:50:29.063Z,7.47
2018-11-14T01:55:31.554Z,7.43
2018-11-14T02:00:34.126Z,7.41
2018-11-14T02:05:36.704Z,7.40
2018-11-14T02:10:39.188Z,7.33
2018-11-14T02:15:41.684Z,7.43
2018-11-14T02:20:44.172Z,7.26
2018-11-14T02:25:46.628Z,7.23
2018-11-14T02:30:49.261Z,7.22
2018-11-14T02:35:51.844Z,7.20
2018-11-14T02:40:54.312Z,7.40
2018-11-14T02:45:56.908Z,7.34
2018-11-14T02:51:10.704Z,7.23
2018-11-14T02:56:13.287Z,7.12
2018-11-14T03:01:15.932Z,7.14
2018-11-14T03:06:18.877Z,7.08
2018-11-14T03:11:21.723Z,7.14
2018-11-14T03:16:24.264Z,7.06
2018-11-14T03:21:26.829Z,6.77
2018-11-14T03:26:29.344Z,6.92
2018-11-14T03:31:31.836Z,6.92
2018-11-14T03:36:34.552Z,6.90
2018-11-14T03:41:37.190Z,6.80
2018-11-14T03:46:39.680Z,6.71
2018-11-14T03:51:42.170Z,6.95
2018-11-14T03:56:44.740Z,6.84
2018-11-14T04:01:47.251Z,6.74
2018-11-14T04:06:49.801Z,6.73
2018-11-14T04:11:52.408Z,6.75
2018-11-14T04:16:55.020Z,6.75
2018-11-14T04:21:57.658Z,6.53
2018-11-14T04:27:00.113Z,6.61
2018-11-14T04:32:02.609Z,6.45
2018-11-14T04:37:05.109Z,6.20
2018-11-14T04:42:07.608Z,6.02
2018-11-14T04:47:10.233Z,6.07
2018-11-14T04:52:12.762Z,6.16
2018-11-14T04:57:15.360Z,6.19
2018-11-14T05:02:18.101Z,6.32
2018-11-14T05:07:20.772Z,6.27
2018-11-14T05:12:23.322Z,6.45
2018-11-14T05:17:25.857Z,6.47
2018-11-14T05:22:28.320Z,6.37
2018-11-14T05:27:30.965Z,6.26
2018-11-14T05:32:33.409Z,6.09
2018-11-14T05:37:37.014Z,5.98
2018-11-14T05:42:40.100Z,5.82
2018-11-14T05:47:42.733Z,6.15
2018-11-14T05:52:45.257Z,6.11
2018-11-14T05:57:47.820Z,6.06
2018-11-14T06:02:50.325Z,6.26
2018-11-14T06:07:52.854Z,6.23
2018-11-14T06:12:55.336Z,6.41
2018-11-14T06:17:58.340Z,6.57
2018-11-14T06:23:00.867Z,6.39
2018-11-14T06:28:04.421Z,6.47
2018-11-14T06:33:08.003Z,6.61
2018-11-14T06:38:10.503Z,6.62
2018-11-14T06:43:16.453Z,6.38
2018-11-14T06:48:18.963Z,6.62
2018-11-14T06:53:21.412Z,6.51
2018-11-14T06:58:23.980Z,6.31
2018-11-14T07:03:26.502Z,6.11
2018-11-14T07:08:29.030Z,6.16
2018-11-14T07:13:31.619Z,6.22
2018-11-14T07:18:34.125Z,6.27
2018-11-14T07:23:36.690Z,6.17
2018-11-14T07:28:39.143Z,6.16
2018-11-14T07:33:41.699Z,6.27
2018-11-14T07:38:48.396Z,6.47
2018-11-14T07:43:51.155Z,6.57
2018-11-14T07:48:53.689Z,6.61
2018-11-14T07:53:56.324Z,6.61
2018-11-14T07:58:58.897Z,6.72
2018-11-14T08:04:01.387Z,6.74
2018-11-14T08:09:05.434Z,6.66
2018-11-14T08:14:08.905Z,6.71
2018-11-14T08:19:11.345Z,6.67
2018-11-14T08:24:13.814Z,6.68
2018-11-14T08:29:16.619Z,6.97
2018-11-14T08:34:19.124Z,6.82
2018-11-14T08:39:21.702Z,6.87
2018-11-14T08:44:24.184Z,7.11
2018-11-14T08:49:26.701Z,7.29
2018-11-14T08:54:29.351Z,7.13
2018-11-14T08:59:31.864Z,7.49
2018-11-14T09:04:35.340Z,7.27
2018-11-14T09:09:37.913Z,7.44
2018-11-14T09:14:40.604Z,7.49
2018-11-14T09:19:43.233Z,7.55
2018-11-14T09:24:47.158Z,7.33
2018-11-14T09:29:49.737Z,7.20
2018-11-14T09:34:52.278Z,7.24
2018-11-14T09:39:54.724Z,7.21
2018-11-14T09:44:57.242Z,7.27
2018-11-14T09:49:59.741Z,7.33
2018-11-14T09:55:02.196Z,7.44
2018-11-14T10:00:11.040Z,7.17
2018-11-14T10:05:15.700Z,7.47
2018-11-14T10:10:19.510Z,7.50
2018-11-14T10:15:23.336Z,7.56
2018-11-14T10:20:26.112Z,7.74
2018-11-14T10:25:28.614Z,7.72
2018-11-14T10:30:31.213Z,7.61
2018-11-14T10:35:33.757Z,7.56
2018-11-14T10:40:36.247Z,7.78
2018-11-14T10:45:38.704Z,7.98
2018-11-14T10:50:41.224Z,7.59
2018-11-14T10:55:43.753Z,7.96
2018-11-14T11:00:48.156Z,7.98
2018-11-14T11:05:56.353Z,8.16
2018-11-14T11:11:04.713Z,8.10
2018-11-14T11:16:12.753Z,7.88
2018-11-14T11:21:15.321Z,8.12
2018-11-14T11:26:17.874Z,8.38
2018-11-14T11:31:21.116Z,8.10
2018-11-14T11:36:23.667Z,8.25
2018-11-14T11:41:26.713Z,8.52
2018-11-14T11:46:29.347Z,8.43
2018-11-14T11:51:31.906Z,8.56
2018-11-14T11:56:34.777Z,8.41
2018-11-14T12:01:37.307Z,8.42
2018-11-14T12:06:40.012Z,8.51
2018-11-14T12:11:42.447Z,8.64
2018-11-14T12:16:44.868Z,8.68
2018-11-14T12:21:47.445Z,8.73
2018-11-14T12:26:49.952Z,8.62
2018-11-14T12:31:52.584Z,8.67
2018-11-14T12:36:55.064Z,8.90
2018-11-14T12:41:57.688Z,8.90
2018-11-14T12:47:00.120Z,8.94
2018-11-14T12:52:02.673Z,8.41
2018-11-14T12:57:05.804Z,8.81
2018-11-14T13:02:08.381Z,8.79
2018-11-14T13:07:10.944Z,9.15
2018-11-14T13:12:13.698Z,9.04
2018-11-14T13:17:16.351Z,9.31
2018-11-14T13:22:19.012Z,8.99
2018-11-14T13:27:21.568Z,9.37
2018-11-14T13:32:24.041Z,9.32
2018-11-14T13:37:26.532Z,9.32
2018-11-14T13:42:29.302Z,9.40
2018-11-14T13:47:31.913Z,9.27
2018-11-14T13:52:34.503Z,9.51
2018-11-14T13:57:37.092Z,9.57
2018-11-14T14:02:40.143Z,9.66
2018-11-14T14:07:42.780Z,9.67
2018-11-14T14:12:46.866Z,9.66
2018-11-14T14:17:49.784Z,9.68
2018-11-14T14:22:52.414Z,9.57
2018-11-14T14:27:54.890Z,9.45
2018-11-14T14:32:57.555Z,9.36
2018-11-14T14:38:00.180Z,9.37
2018-11-14T14:43:02.550Z,9.30
2018-11-14T14:48:05.469Z,9.34
2018-11-14T14:53:08.021Z,9.28
2018-11-14T14:58:10.635Z,9.21
2018-11-14T15:03:13.169Z,9.13
2018-11-14T15:08:15.700Z,9.19
2018-11-14T15:13:19.258Z,9.18
2018-11-14T15:18:21.760Z,9.10
2018-11-14T15:23:26.342Z,8.93
2018-11-14T15:28:28.835Z,8.75
2018-11-14T15:33:32.266Z,8.64
2018-11-14T15:38:34.719Z,8.62
2018-11-14T15:43:37.215Z,8.46
2018-11-14T15:48:39.761Z,8.37
2018-11-14T15:53:42.276Z,8.31
2018-11-14T15:58:45.059Z,8.23
2018-11-14T16:03:47.549Z,8.19
2018-11-14T16:08:50.077Z,8.06
2018-11-14T16:14:00.010Z,8.10
2018-11-14T16:19:02.497Z,8.03
2018-11-14T16:24:06.183Z,7.96
2018-11-14T16:29:08.665Z,7.83
2018-11-14T16:34:11.410Z,7.81
2018-11-14T16:39:13.953Z,7.68
2018-11-14T16:44:16.534Z,7.62
2018-11-14T16:49:19.020Z,7.55
2018-11-14T16:54:21.858Z,7.48
2018-11-14T16:59:24.523Z,7.45
2018-11-14T17:04:28.279Z,7.33
2018-11-14T17:09:30.825Z,7.39
2018-11-14T17:14:33.576Z,7.47
2018-11-14T17:19:36.198Z,7.46
2018-11-14T17:24:38.812Z,7.47
2018-11-14T17:29:41.251Z,7.55
2018-11-14T17:34:43.995Z,7.46
2018-11-14T17:39:46.740Z,7.56
2018-11-14T17:44:49.760Z,7.55
2018-11-14T17:49:52.539Z,7.64
2018-11-14T17:54:55.501Z,7.64
2018-11-14T17:59:58.516Z,7.48
2018-11-14T18:05:01.193Z,7.57
2018-11-14T18:10:04.260Z,7.59
2018-11-14T18:15:09.226Z,7.67
2018-11-14T18:20:20.213Z,7.73
2018-11-14T18:25:22.874Z,7.73
2018-11-14T18:30:28.021Z,7.66
2018-11-14T18:35:30.740Z,7.76
2018-11-14T18:40:34.447Z,7.79
2018-11-14T18:45:37.160Z,7.90
2018-11-14T18:50:39.771Z,7.86
2018-11-14T18:55:42.434Z,7.83
2018-11-14T19:00:45.204Z,7.81
2018-11-14T19:05:48.201Z,7.85
2018-11-14T19:10:58.588Z,7.78
2018-11-14T19:16:01.280Z,7.82
2018-11-14T19:21:04.301Z,7.91
2018-11-14T19:26:06.956Z,7.92
2018-11-14T19:31:09.639Z,7.95
2018-11-14T19:36:12.929Z,7.95
2018-11-14T19:41:15.525Z,7.92
2018-11-14T19:46:20.089Z,7.94
2018-11-14T19:51:52.262Z,7.98
2018-11-14T19:56:57.953Z,7.92
2018-11-14T20:02:14.141Z,7.96
2018-11-14T20:07:22.905Z,7.96
2018-11-14T20:12:30.887Z,8.00
2018-11-14T20:17:38.305Z,7.96
2018-11-14T20:22:54.695Z,7.98
2018-11-14T20:27:57.487Z,7.89
2018-11-14T20:33:02.079Z,7.96
2018-11-14T20:38:05.163Z,7.94
2018-11-14T20:43:14.490Z,7.95
2018-11-14T20:48:32.396Z,7.84
2018-11-14T20:53:35.168Z,7.73
2018-11-14T20:58:37.933Z,7.74
2018-11-14T21:03:40.792Z,7.78
2018-11-14T21:08:43.703Z,7.74
2018-11-14T21:13:46.747Z,7.72
2018-11-14T21:18:51.227Z,7.65
2018-11-14T21:23:53.989Z,7.57
2018-11-14T21:28:56.854Z,7.62
2018-11-14T21:34:02.624Z,7.64
2018-11-14T21:39:08.644Z,7.63
2018-11-14T21:44:13.370Z,7.59
2018-11-14T21:49:23.222Z,7.56
2018-11-14T21:54:26.565Z,7.48
2018-11-14T21:59:29.815Z,7.37
2018-11-14T22:04:34.076Z,7.16
2018-11-14T22:09:36.949Z,7.13
2018-11-14T22:14:39.829Z,7.17
2018-11-14T22:19:42.597Z,7.19
2018-11-14T22:24:45.208Z,7.11
2018-11-14T22:29:47.856Z,7.10
2018-11-14T22:34:50.508Z,7.06
2018-11-14T22:39:53.056Z,7.03
2018-11-14T22:44:55.532Z,7.02
2018-11-14T22:49:58.442Z,6.96
2018-11-14T22:55:00.871Z,7.08
2018-11-14T23:00:05.199Z,7.05
2018-11-14T23:05:07.696Z,7.00
2018-11-14T23:10:10.491Z,7.00
2018-11-14T23:15:13.466Z,6.89
2018-11-14T23:20:16.398Z,7.06
2018-11-14T23:25:19.403Z,6.97
2018-11-14T23:30:23.053Z,6.92
2018-11-14T23:35:26.768Z,6.80
2018-11-14T23:40:29.445Z,6.84
2018-11-14T23:45:32.064Z,6.86
2018-11-14T23:50:34.556Z,6.74
2018-11-14T23:55:37.105Z,6.77
